Time,TemperatureF,DewpointF,PressureIn,WindDirection,WindDirectionDegrees,WindSpeedMPH,WindSpeedGustMPH,Humidity,HourlyPrecipIn,Conditions,Clouds,dailyrainin,SoftwareType,DateUTC
2013-09-09 00:05:00,42.1,34.1,30.21,North,-999,-999.0,-999.0,73,-99.99,,,-99.99,Acu-Link.com,2013-09-09 04:05:00,
2013-09-09 00:20:00,41.5,33.9,30.21,North,-999,-999.0,-999.0,74,-99.99,,,-99.99,Acu-Link.com,2013-09-09 04:20:00,
2013-09-09 00:35:00,41.2,33.5,30.21,North,-999,-999.0,-999.0,74,-99.99,,,-99.99,Acu-Link.com,2013-09-09 04:35:00,
2013-09-09 00:50:00,41.0,33.4,30.21,North,-999,-999.0,-999.0,74,-99.99,,,-99.99,Acu-Link.com,2013-09-09 04:50:00,
2013-09-09 01:05:00,40.6,33.3,30.21,North,-999,-999.0,-999.0,75,-99.99,,,-99.99,Acu-Link.com,2013-09-09 05:05:00,
2013-09-09 01:20:00,40.1,33.2,30.21,North,-999,-999.0,-999.0,76,-99.99,,,-99.99,Acu-Link.com,2013-09-09 05:20:00,
2013-09-09 01:36:00,39.7,32.8,30.21,North,-999,-999.0,-999.0,76,-99.99,,,-99.99,Acu-Link.com,2013-09-09 05:36:00,
2013-09-09 01:51:00,39.4,32.5,30.21,North,-999,-999.0,-999.0,76,-99.99,,,-99.99,Acu-Link.com,2013-09-09 05:51:00,
2013-09-09 02:06:00,39.2,32.3,30.21,North,-999,-999.0,-999.0,76,-99.99,,,-99.99,Acu-Link.com,2013-09-09 06:06:00,
2013-09-09 02:21:00,38.8,32.3,30.21,North,-999,-999.0,-999.0,77,-99.99,,,-99.99,Acu-Link.com,2013-09-09 06:21:00,
2013-09-09 02:36:00,38.5,31.9,30.22,North,-999,-999.0,-999.0,77,-99.99,,,-99.99,Acu-Link.com,2013-09-09 06:36:00,
2013-09-09 02:51:00,38.3,31.7,30.22,North,-999,-999.0,-999.0,77,-99.99,,,-99.99,Acu-Link.com,2013-09-09 06:51:00,
2013-09-09 03:06:00,38.1,31.6,30.22,North,-999,-999.0,-999.0,77,-99.99,,,-99.99,Acu-Link.com,2013-09-09 07:06:00,
2013-09-09 03:21:00,37.9,31.4,30.22,North,-999,-999.0,-999.0,77,-99.99,,,-99.99,Acu-Link.com,2013-09-09 07:21:00,
2013-09-09 03:36:00,37.6,31.4,30.22,North,-999,-999.0,-999.0,78,-99.99,,,-99.99,Acu-Link.com,2013-09-09 07:36:00,
2013-09-09 03:51:00,37.2,31.3,30.22,North,-999,-999.0,-999.0,79,-99.99,,,-99.99,Acu-Link.com,2013-09-09 07:51:00,
2013-09-09 04:07:00,37.2,31.0,30.23,North,-999,-999.0,-999.0,78,-99.99,,,-99.99,Acu-Link.com,2013-09-09 08:07:00,
2013-09-09 04:22:00,37.2,31.0,30.23,North,-999,-999.0,-999.0,78,-99.99,,,-99.99,Acu-Link.com,2013-09-09 08:22:00,
2013-09-09 04:37:00,37.0,31.1,30.24,North,-999,-999.0,-999.0,79,-99.99,,,-99.99,Acu-Link.com,2013-09-09 08:37:00,
2013-09-09 04:52:00,36.9,31.0,30.25,North,-999,-999.0,-999.0,79,-99.99,,,-99.99,Acu-Link.com,2013-09-09 08:52:00,
2013-09-09 05:07:00,36.1,30.6,30.25,North,-999,-999.0,-999.0,80,-99.99,,,-99.99,Acu-Link.com,2013-09-09 09:07:00,
2013-09-09 05:22:00,36.0,30.4,30.26,North,-999,-999.0,-999.0,80,-99.99,,,-99.99,Acu-Link.com,2013-09-09 09:22:00,
2013-09-09 05:37:00,35.6,30.1,30.26,North,-999,-999.0,-999.0,80,-99.99,,,-99.99,Acu-Link.com,2013-09-09 09:37:00,
2013-09-09 05:53:00,35.6,30.1,30.27,North,-999,-999.0,-999.0,80,-99.99,,,-99.99,Acu-Link.com,2013-09-09 09:53:00,
2013-09-09 06:08:00,35.6,30.1,30.27,North,-999,-999.0,-999.0,80,-99.99,,,-99.99,Acu-Link.com,2013-09-09 10:08:00,
2013-09-09 06:23:00,35.4,29.9,30.28,North,-999,-999.0,-999.0,80,-99.99,,,-99.99,Acu-Link.com,2013-09-09 10:23:00,
2013-09-09 06:38:00,35.6,30.1,30.29,North,-999,-999.0,-999.0,80,-99.99,,,-99.99,Acu-Link.com,2013-09-09 10:38:00,
2013-09-09 06:53:00,35.4,30.2,30.30,North,-999,-999.0,-999.0,81,-99.99,,,-99.99,Acu-Link.com,2013-09-09 10:53:00,
2013-09-09 07:08:00,36.0,30.7,30.31,North,-999,-999.0,-999.0,81,-99.99,,,-99.99,Acu-Link.com,2013-09-09 11:08:00,
2013-09-09 07:23:00,41.7,36.9,30.31,North,-999,-999.0,-999.0,83,-99.99,,,-99.99,Acu-Link.com,2013-09-09 11:23:00,
2013-09-09 07:38:00,44.6,38.2,30.31,North,-999,-999.0,-999.0,78,-99.99,,,-99.99,Acu-Link.com,2013-09-09 11:38:00,
2013-09-09 07:53:00,44.2,36.8,30.32,North,-999,-999.0,-999.0,75,-99.99,,,-99.99,Acu-Link.com,2013-09-09 11:53:00,
2013-09-09 08:08:00,44.6,37.2,30.32,North,-999,-999.0,-999.0,75,-99.99,,,-99.99,Acu-Link.com,2013-09-09 12:08:00,
2013-09-09 08:23:00,45.5,38.0,30.32,North,-999,-999.0,-999.0,75,-99.99,,,-99.99,Acu-Link.com,2013-09-09 12:23:00,
2013-09-09 08:38:00,45.3,37.9,30.31,North,-999,-999.0,-999.0,75,-99.99,,,-99.99,Acu-Link.com,2013-09-09 12:38:00,
2013-09-09 08:54:00,46.6,39.1,30.31,North,-999,-999.0,-999.0,75,-99.99,,,-99.99,Acu-Link.com,2013-09-09 12:54:00,
2013-09-09 09:09:00,48.0,40.5,30.31,North,-999,-999.0,-999.0,75,-99.99,,,-99.99,Acu-Link.com,2013-09-09 13:09:00,
2013-09-09 09:24:00,49.5,41.2,30.31,North,-999,-999.0,-999.0,73,-99.99,,,-99.99,Acu-Link.com,2013-09-09 13:24:00,
2013-09-09 09:39:00,51.3,42.2,30.31,North,-999,-999.0,-999.0,71,-99.99,,,-99.99,Acu-Link.com,2013-09-09 13:39:00,
2013-09-09 09:54:00,52.5,41.9,30.31,North,-999,-999.0,-999.0,67,-99.99,,,-99.99,Acu-Link.com,2013-09-09 13:54:00,
2013-09-09 10:09:00,53.8,42.7,30.30,North,-999,-999.0,-999.0,66,-99.99,,,-99.99,Acu-Link.com,2013-09-09 14:09:00,
2013-09-09 10:24:00,55.0,43.1,30.30,North,-999,-999.0,-999.0,64,-99.99,,,-99.99,Acu-Link.com,2013-09-09 14:24:00,
2013-09-09 10:39:00,56.1,43.7,30.30,North,-999,-999.0,-999.0,63,-99.99,,,-99.99,Acu-Link.com,2013-09-09 14:39:00,
2013-09-09 10:54:00,56.7,42.9,30.30,North,-999,-999.0,-999.0,60,-99.99,,,-99.99,Acu-Link.com,2013-09-09 14:54:00,
2013-09-09 11:09:00,57.9,43.7,30.30,North,-999,-999.0,-999.0,59,-99.99,,,-99.99,Acu-Link.com,2013-09-09 15:09:00,
2013-09-09 11:25:00,58.8,43.6,30.29,North,-999,-999.0,-999.0,57,-99.99,,,-99.99,Acu-Link.com,2013-09-09 15:25:00,
2013-09-09 11:40:00,59.7,44.0,30.29,North,-999,-999.0,-999.0,56,-99.99,,,-99.99,Acu-Link.com,2013-09-09 15:40:00,
2013-09-09 11:55:00,59.9,43.7,30.29,North,-999,-999.0,-999.0,55,-99.99,,,-99.99,Acu-Link.com,2013-09-09 15:55:00,
2013-09-09 12:10:00,60.8,44.0,30.28,North,-999,-999.0,-999.0,54,-99.99,,,-99.99,Acu-Link.com,2013-09-09 16:10:00,
2013-09-09 12:25:00,61.3,44.5,30.28,North,-999,-999.0,-999.0,54,-99.99,,,-99.99,Acu-Link.com,2013-09-09 16:25:00,
2013-09-09 12:40:00,62.1,44.7,30.27,North,-999,-999.0,-999.0,53,-99.99,,,-99.99,Acu-Link.com,2013-09-09 16:40:00,
2013-09-09 12:55:00,62.4,45.1,30.27,North,-999,-999.0,-999.0,53,-99.99,,,-99.99,Acu-Link.com,2013-09-09 16:55:00,
2013-09-09 13:10:00,63.1,45.2,30.27,North,-999,-999.0,-999.0,52,-99.99,,,-99.99,Acu-Link.com,2013-09-09 17:10:00,
2013-09-09 13:25:00,63.0,45.1,30.26,North,-999,-999.0,-999.0,52,-99.99,,,-99.99,Acu-Link.com,2013-09-09 17:25:00,
2013-09-09 13:40:00,63.5,45.6,30.26,North,-999,-999.0,-999.0,52,-99.99,,,-99.99,Acu-Link.com,2013-09-09 17:40:00,
2013-09-09 13:55:00,63.7,45.7,30.26,North,-999,-999.0,-999.0,52,-99.99,,,-99.99,Acu-Link.com,2013-09-09 17:55:00,
2013-09-09 14:10:00,63.7,44.7,30.26,North,-999,-999.0,-999.0,50,-99.99,,,-99.99,Acu-Link.com,2013-09-09 18:10:00,
2013-09-09 14:25:00,64.0,45.0,30.26,North,-999,-999.0,-999.0,50,-99.99,,,-99.99,Acu-Link.com,2013-09-09 18:25:00,
2013-09-09 14:40:00,64.4,45.4,30.25,North,-999,-999.0,-999.0,50,-99.99,,,-99.99,Acu-Link.com,2013-09-09 18:40:00,
2013-09-09 14:56:00,64.0,45.0,30.25,North,-999,-999.0,-999.0,50,-99.99,,,-99.99,Acu-Link.com,2013-09-09 18:56:00,
2013-09-09 15:11:00,64.4,45.4,30.25,North,-999,-999.0,-999.0,50,-99.99,,,-99.99,Acu-Link.com,2013-09-09 19:11:00,
2013-09-09 15:26:00,64.4,45.4,30.25,North,-999,-999.0,-999.0,50,-99.99,,,-99.99,Acu-Link.com,2013-09-09 19:26:00,
2013-09-09 15:41:00,64.4,45.4,30.25,North,-999,-999.0,-999.0,50,-99.99,,,-99.99,Acu-Link.com,2013-09-09 19:41:00,
2013-09-09 15:56:00,64.0,45.0,30.25,North,-999,-999.0,-999.0,50,-99.99,,,-99.99,Acu-Link.com,2013-09-09 19:56:00,
2013-09-09 16:11:00,63.7,44.7,30.24,North,-999,-999.0,-999.0,50,-99.99,,,-99.99,Acu-Link.com,2013-09-09 20:11:00,
2013-09-09 16:26:00,63.5,44.5,30.23,North,-999,-999.0,-999.0,50,-99.99,,,-99.99,Acu-Link.com,2013-09-09 20:26:00,
2013-09-09 16:41:00,63.0,44.0,30.24,North,-999,-999.0,-999.0,50,-99.99,,,-99.99,Acu-Link.com,2013-09-09 20:41:00,
2013-09-09 16:56:00,62.1,43.2,30.24,North,-999,-999.0,-999.0,50,-99.99,,,-99.99,Acu-Link.com,2013-09-09 20:56:00,
2013-09-09 17:11:00,61.7,43.4,30.24,North,-999,-999.0,-999.0,51,-99.99,,,-99.99,Acu-Link.com,2013-09-09 21:11:00,
2013-09-09 17:27:00,61.3,43.1,30.23,North,-999,-999.0,-999.0,51,-99.99,,,-99.99,Acu-Link.com,2013-09-09 21:27:00,
2013-09-09 17:42:00,60.8,43.1,30.23,North,-999,-999.0,-999.0,52,-99.99,,,-99.99,Acu-Link.com,2013-09-09 21:42:00,
2013-09-09 17:57:00,60.3,43.1,30.23,North,-999,-999.0,-999.0,53,-99.99,,,-99.99,Acu-Link.com,2013-09-09 21:57:00,
2013-09-09 18:12:00,59.9,42.7,30.23,North,-999,-999.0,-999.0,53,-99.99,,,-99.99,Acu-Link.com,2013-09-09 22:12:00,
2013-09-09 18:27:00,59.4,42.7,30.23,North,-999,-999.0,-999.0,54,-99.99,,,-99.99,Acu-Link.com,2013-09-09 22:27:00,
2013-09-09 18:42:00,58.5,43.3,30.22,North,-999,-999.0,-999.0,57,-99.99,,,-99.99,Acu-Link.com,2013-09-09 22:42:00,
2013-09-09 18:57:00,57.6,43.3,30.22,North,-999,-999.0,-999.0,59,-99.99,,,-99.99,Acu-Link.com,2013-09-09 22:57:00,
2013-09-09 19:12:00,56.8,43.5,30.22,North,-999,-999.0,-999.0,61,-99.99,,,-99.99,Acu-Link.com,2013-09-09 23:12:00,
2013-09-09 19:27:00,56.1,43.7,30.22,North,-999,-999.0,-999.0,63,-99.99,,,-99.99,Acu-Link.com,2013-09-09 23:27:00,
2013-09-09 19:42:00,55.4,43.8,30.22,North,-999,-999.0,-999.0,65,-99.99,,,-99.99,Acu-Link.com,2013-09-09 23:42:00,
2013-09-09 19:57:00,54.9,43.7,30.22,North,-999,-999.0,-999.0,66,-99.99,,,-99.99,Acu-Link.com,2013-09-09 23:57:00,
2013-09-09 20:12:00,54.3,44.0,30.22,North,-999,-999.0,-999.0,68,-99.99,,,-99.99,Acu-Link.com,2013-09-10 00:12:00,
2013-09-09 20:27:00,54.3,44.0,30.22,North,-999,-999.0,-999.0,68,-99.99,,,-99.99,Acu-Link.com,2013-09-10 00:27:00,
2013-09-09 20:43:00,54.3,44.0,30.23,North,-999,-999.0,-999.0,68,-99.99,,,-99.99,Acu-Link.com,2013-09-10 00:43:00,
2013-09-09 20:58:00,54.0,43.6,30.23,North,-999,-999.0,-999.0,68,-99.99,,,-99.99,Acu-Link.com,2013-09-10 00:58:00,
2013-09-09 21:13:00,53.4,43.9,30.23,North,-999,-999.0,-999.0,70,-99.99,,,-99.99,Acu-Link.com,2013-09-10 01:13:00,
2013-09-09 21:28:00,52.5,43.4,30.23,North,-999,-999.0,-999.0,71,-99.99,,,-99.99,Acu-Link.com,2013-09-10 01:28:00,
2013-09-09 21:43:00,52.2,43.4,30.22,North,-999,-999.0,-999.0,72,-99.99,,,-99.99,Acu-Link.com,2013-09-10 01:43:00,
2013-09-09 21:58:00,52.0,43.2,30.22,North,-999,-999.0,-999.0,72,-99.99,,,-99.99,Acu-Link.com,2013-09-10 01:58:00,
2013-09-09 22:13:00,51.4,43.1,30.21,North,-999,-999.0,-999.0,73,-99.99,,,-99.99,Acu-Link.com,2013-09-10 02:13:00,
2013-09-09 22:28:00,51.1,43.1,30.22,North,-999,-999.0,-999.0,74,-99.99,,,-99.99,Acu-Link.com,2013-09-10 02:28:00,
2013-09-09 22:43:00,50.9,42.9,30.22,North,-999,-999.0,-999.0,74,-99.99,,,-99.99,Acu-Link.com,2013-09-10 02:43:00,
2013-09-09 22:58:00,50.5,42.9,30.22,North,-999,-999.0,-999.0,75,-99.99,,,-99.99,Acu-Link.com,2013-09-10 02:58:00,
2013-09-09 23:13:00,50.5,42.9,30.22,North,-999,-999.0,-999.0,75,-99.99,,,-99.99,Acu-Link.com,2013-09-10 03:13:00,
2013-09-09 23:28:00,50.5,42.9,30.21,North,-999,-999.0,-999.0,75,-99.99,,,-99.99,Acu-Link.com,2013-09-10 03:28:00,
2013-09-09 23:43:00,50.2,43.6,30.21,North,-999,-999.0,-999.0,78,-99.99,,,-99.99,Acu-Link.com,2013-09-10 03:43:00,
2013-09-09 23:58:00,51.3,46.0,30.20,North,-999,-999.0,-999.0,82,-99.99,,,-99.99,Acu-Link.com,2013-09-10 03:58:00,